CheckWX is a tool to help pilots better visualize weather data.  It is not intended as a substitute for an official pre-flight weather briefing.

04:39:11 UTC

KCWA TAF
Central Wisconsin Airport
Mosinee, Wisconsin, USA
KCWA 162332Z 1700/1724 16004KT P6SM BKN200 FM170700 14005KT 5SM BR BKN200 TEMPO 1709/1713 2SM BR FM171400 16006KT P6SM SCT200 FM171700 16009G15KT P6SM SCT200 AMD LTD TO CLD VIS AND WIND 1703/1711

Sep-17@
00:00 UTC

Sep-17 @ 00:00 UTC

Sep-17@
07:00 UTC

Sep-17 @ 07:00 UTC

KCWA 162332Z 1700/1724 16004KT P6SM BKN200
Wind
  • 160° at 4 KTS
Cloud Levels
  • Broken at 20,000' AGL

Sep-17@
07:00 UTC

Sep-17 @ 07:00 UTC

Sep-17@
14:00 UTC

Sep-17 @ 14:00 UTC

FM170700 14005KT 5SM BR BKN200

From

From Standard forecast or significant change

Wind
  • 140° at 5 KTS
Conditions
Mist
Cloud Levels
  • Broken at 20,000' AGL

Sep-17@
09:00 UTC

Sep-17 @ 09:00 UTC

Sep-17@
13:00 UTC

Sep-17 @ 13:00 UTC

TEMPO 1709/1713 2SM BR

Temporary

Temporary Changes expected for less than half the time period

Conditions
Mist

Sep-17@
14:00 UTC

Sep-17 @ 14:00 UTC

Sep-17@
17:00 UTC

Sep-17 @ 17:00 UTC

FM171400 16006KT P6SM SCT200

From

From Standard forecast or significant change

Wind
  • 160° at 6 KTS
Cloud Levels
  • Scattered at 20,000' AGL

Sep-17@
17:00 UTC

Sep-17 @ 17:00 UTC

Sep-18@
00:00 UTC

Sep-18 @ 00:00 UTC

FM171700 16009G15KT P6SM SCT200 AMD LTD TO CLD VIS AND WIND 1703/1711

From

From Standard forecast or significant change

Wind
  • 160° at 9 KTS
  • {Gusting to 15 KTS
Cloud Levels
  • Scattered at 20,000' AGL